createdAt,value
2023-03-06T00:02:34.380Z,20.12
2023-03-06T00:07:56.236Z,20.08
2023-03-06T00:13:20.951Z,20.04
2023-03-06T00:18:44.217Z,20.01
2023-03-06T00:24:06.197Z,19.95
2023-03-06T00:29:27.856Z,19.94
2023-03-06T00:34:50.776Z,19.90
2023-03-06T00:40:15.552Z,19.86
2023-03-06T00:45:37.472Z,19.82
2023-03-06T00:50:59.260Z,19.80
2023-03-06T00:56:21.038Z,19.77
2023-03-06T01:01:43.318Z,19.71
2023-03-06T01:07:05.138Z,19.68
2023-03-06T01:12:27.110Z,19.64
2023-03-06T01:17:51.871Z,19.60
2023-03-06T01:23:13.692Z,19.57
2023-03-06T01:28:37.604Z,19.54
2023-03-06T01:33:59.339Z,19.52
2023-03-06T01:39:21.273Z,19.49
2023-03-06T01:45:18.152Z,19.45
2023-03-06T01:50:39.863Z,19.43
2023-03-06T01:56:01.591Z,19.41
2023-03-06T02:01:23.555Z,19.36
2023-03-06T02:06:45.853Z,19.35
2023-03-06T02:12:11.774Z,19.32
2023-03-06T02:17:34.861Z,19.30
2023-03-06T02:23:06.585Z,19.28
2023-03-06T02:28:28.487Z,19.25
2023-03-06T02:34:04.082Z,19.23
2023-03-06T02:39:30.142Z,19.20
2023-03-06T02:44:53.913Z,19.18
2023-03-06T02:50:15.615Z,19.16
2023-03-06T02:55:38.551Z,19.13
2023-03-06T03:01:00.368Z,19.12
2023-03-06T03:06:22.134Z,19.11
2023-03-06T03:11:43.901Z,19.07
2023-03-06T03:17:06.957Z,19.06
2023-03-06T03:22:29.089Z,19.04
2023-03-06T03:27:51.009Z,19.02
2023-03-06T03:33:13.094Z,19.01
2023-03-06T03:38:35.481Z,18.99
2023-03-06T03:43:57.133Z,18.98
2023-03-06T03:49:19.060Z,18.97
2023-03-06T03:54:40.812Z,18.94
2023-03-06T04:00:02.749Z,18.91
2023-03-06T04:05:24.697Z,18.89
2023-03-06T04:10:46.433Z,18.88
2023-03-06T04:16:08.400Z,18.85
2023-03-06T04:21:30.058Z,18.84
2023-03-06T04:26:51.944Z,18.83
2023-03-06T04:32:13.671Z,18.81
2023-03-06T04:37:35.370Z,18.80
2023-03-06T04:42:58.342Z,18.79
2023-03-06T04:48:20.112Z,18.75
2023-03-06T04:53:41.952Z,18.73
2023-03-06T04:59:04.886Z,18.72
2023-03-06T05:04:26.685Z,18.71
2023-03-06T05:09:48.367Z,18.69
2023-03-06T05:15:11.337Z,18.69
2023-03-06T05:20:33.893Z,18.67
2023-03-06T05:25:55.835Z,18.65
2023-03-06T05:31:17.593Z,18.62
2023-03-06T05:36:39.358Z,18.61
2023-03-06T05:42:01.300Z,18.58
2023-03-06T05:47:23.110Z,18.58
2023-03-06T05:52:44.779Z,18.56
2023-03-06T05:58:06.466Z,18.54
2023-03-06T06:03:28.176Z,18.53
2023-03-06T06:08:49.868Z,18.63
2023-03-06T06:14:12.006Z,19.02
2023-03-06T06:19:33.764Z,19.44
2023-03-06T06:24:55.541Z,19.83
2023-03-06T06:30:17.861Z,20.19
2023-03-06T06:35:39.586Z,20.37
2023-03-06T06:41:33.429Z,20.44
2023-03-06T06:52:28.037Z,20.35
2023-03-06T06:57:49.783Z,20.22
2023-03-06T07:03:14.420Z,20.13
2023-03-06T07:08:36.644Z,20.02
2023-03-06T07:13:58.448Z,19.93
2023-03-06T07:19:20.155Z,19.84
2023-03-06T07:24:41.872Z,19.76
2023-03-06T07:30:04.458Z,19.67
2023-03-06T07:35:26.523Z,19.61
2023-03-06T07:40:50.912Z,19.57
2023-03-06T07:46:14.362Z,19.52
2023-03-06T07:51:36.111Z,19.59
2023-03-06T07:56:57.825Z,19.83
2023-03-06T08:02:19.590Z,20.26
2023-03-06T08:07:41.844Z,20.76
2023-03-06T08:13:03.969Z,21.26
2023-03-06T08:18:26.659Z,21.72
2023-03-06T08:23:50.167Z,22.09
2023-03-06T08:29:12.105Z,22.29
2023-03-06T08:34:33.806Z,22.26
2023-03-06T08:39:55.540Z,22.11
2023-03-06T08:45:17.431Z,21.89
2023-03-06T08:50:41.403Z,21.68
2023-03-06T08:56:03.896Z,21.48
2023-03-06T09:01:28.954Z,21.29
2023-03-06T09:06:55.502Z,21.09
2023-03-06T09:12:17.300Z,20.93
2023-03-06T09:17:40.003Z,20.77
2023-03-06T09:23:01.792Z,20.64
2023-03-06T09:28:24.340Z,20.50
2023-03-06T09:33:46.904Z,20.39
2023-03-06T09:39:09.552Z,20.29
2023-03-06T09:44:34.605Z,20.19
2023-03-06T09:50:05.485Z,20.09
2023-03-06T09:55:32.827Z,19.99
2023-03-06T10:01:03.805Z,19.90
2023-03-06T10:06:31.509Z,19.82
2023-03-06T10:11:58.956Z,19.74
2023-03-06T10:17:24.028Z,19.66
2023-03-06T10:23:05.894Z,19.60
2023-03-06T10:28:49.698Z,19.55
2023-03-06T10:34:16.298Z,19.61
2023-03-06T10:39:39.861Z,19.83
2023-03-06T10:45:13.262Z,20.14
2023-03-06T10:50:35.379Z,20.40
2023-03-06T10:56:00.139Z,20.62
2023-03-06T11:01:22.704Z,20.81
2023-03-06T11:06:44.768Z,20.97
2023-03-06T11:12:28.001Z,21.06
2023-03-06T11:17:58.222Z,21.05
2023-03-06T11:23:19.857Z,21.00
2023-03-06T11:29:04.475Z,20.89
2023-03-06T11:34:50.180Z,20.78
2023-03-06T11:40:17.795Z,20.66
2023-03-06T11:46:02.406Z,20.55
2023-03-06T11:51:30.551Z,20.44
2023-03-06T11:57:02.604Z,20.39
2023-03-06T12:02:33.188Z,20.31
2023-03-06T12:08:13.257Z,20.25
2023-03-06T12:13:55.336Z,20.18
2023-03-06T12:19:28.352Z,20.13
2023-03-06T12:25:04.038Z,20.23
2023-03-06T12:30:56.369Z,20.37
2023-03-06T12:36:26.876Z,20.49
2023-03-06T12:41:54.493Z,20.62
2023-03-06T12:47:20.786Z,20.65
2023-03-06T12:52:43.122Z,20.63
2023-03-06T12:58:29.630Z,20.58
2023-03-06T13:04:00.490Z,20.49
2023-03-06T13:09:28.020Z,20.39
2023-03-06T13:14:56.425Z,20.31
2023-03-06T13:20:27.483Z,20.23
2023-03-06T13:25:50.648Z,20.15
2023-03-06T13:31:26.526Z,20.08
2023-03-06T13:36:48.835Z,20.03
2023-03-06T13:42:28.815Z,19.99
2023-03-06T13:53:57.555Z,19.86
2023-03-06T14:00:03.084Z,19.82
2023-03-06T14:05:42.844Z,19.76
2023-03-06T14:11:19.826Z,19.71
2023-03-06T14:16:49.898Z,19.65
2023-03-06T14:22:17.434Z,19.63
2023-03-06T14:27:49.910Z,19.62
2023-03-06T14:33:12.246Z,19.58
2023-03-06T14:38:38.200Z,19.54
2023-03-06T14:44:09.140Z,19.51
2023-03-06T14:49:30.828Z,19.45
2023-03-06T14:54:52.674Z,19.41
2023-03-06T15:00:19.447Z,19.36
2023-03-06T15:05:44.449Z,19.33
2023-03-06T15:11:08.082Z,19.27
2023-03-06T15:16:31.030Z,19.24
2023-03-06T15:21:53.000Z,19.21
2023-03-06T15:27:19.313Z,19.19
2023-03-06T15:32:42.996Z,19.15
2023-03-06T15:38:42.323Z,19.11
2023-03-06T15:44:13.110Z,19.07
2023-03-06T15:49:37.853Z,19.01
2023-03-06T15:54:59.835Z,18.95
2023-03-06T16:00:30.787Z,18.92
2023-03-06T16:05:52.463Z,18.88
2023-03-06T16:11:26.030Z,18.83
2023-03-06T16:16:52.019Z,18.81
2023-03-06T16:22:13.961Z,18.78
2023-03-06T16:27:35.877Z,18.75
2023-03-06T16:32:58.082Z,18.71
2023-03-06T16:38:19.755Z,18.69
2023-03-06T16:43:41.446Z,18.65
2023-03-06T16:49:03.268Z,18.63
2023-03-06T16:54:26.461Z,18.61
2023-03-06T16:59:48.178Z,18.58
2023-03-06T17:05:10.943Z,18.54
2023-03-06T17:10:32.856Z,18.51
2023-03-06T17:15:59.601Z,18.50
2023-03-06T17:21:21.506Z,18.49
2023-03-06T17:26:44.598Z,18.48
2023-03-06T17:32:06.592Z,18.43
2023-03-06T17:37:28.760Z,18.52
2023-03-06T17:42:51.312Z,18.87
2023-03-06T17:48:13.601Z,19.44
2023-03-06T17:53:35.855Z,19.91
2023-03-06T17:58:57.673Z,20.39
2023-03-06T18:04:19.450Z,20.81
2023-03-06T18:09:42.787Z,21.16
2023-03-06T18:15:04.883Z,21.34
2023-03-06T18:20:26.710Z,21.41
2023-03-06T18:25:48.524Z,21.36
2023-03-06T18:31:34.049Z,21.27
2023-03-06T18:36:56.073Z,21.13
2023-03-06T18:42:18.588Z,20.98
2023-03-06T18:47:41.023Z,20.82
2023-03-06T18:53:02.818Z,20.73
2023-03-06T18:58:24.606Z,20.79
2023-03-06T19:03:46.885Z,21.03
2023-03-06T19:09:09.078Z,21.29
2023-03-06T19:14:31.049Z,21.54
2023-03-06T19:19:52.788Z,21.74
2023-03-06T19:25:14.695Z,21.83
2023-03-06T19:30:40.466Z,21.89
2023-03-06T19:36:02.904Z,21.95
2023-03-06T19:41:25.355Z,22.07
2023-03-06T19:46:47.083Z,22.22
2023-03-06T19:52:08.765Z,22.38
2023-03-06T19:57:30.613Z,22.49
2023-03-06T20:02:52.445Z,22.57
2023-03-06T20:08:14.283Z,22.64
2023-03-06T20:13:37.246Z,22.66
2023-03-06T20:19:01.397Z,22.62
2023-03-06T20:24:23.101Z,22.52
2023-03-06T20:29:45.943Z,22.43
2023-03-06T20:35:08.107Z,22.33
2023-03-06T20:40:29.848Z,22.21
2023-03-06T20:45:59.868Z,22.09
2023-03-06T20:51:28.863Z,21.96
2023-03-06T20:56:50.917Z,21.82
2023-03-06T21:02:14.983Z,21.73
2023-03-06T21:07:36.778Z,21.66
2023-03-06T21:12:58.524Z,21.62
2023-03-06T21:18:20.245Z,21.56
2023-03-06T21:23:42.164Z,21.54
2023-03-06T21:29:04.360Z,21.48
2023-03-06T21:34:25.989Z,21.38
2023-03-06T21:39:47.799Z,21.30
2023-03-06T21:45:09.969Z,21.20
2023-03-06T21:50:31.681Z,21.09
2023-03-06T21:55:53.478Z,21.00
2023-03-06T22:01:20.978Z,20.90
2023-03-06T22:06:42.702Z,20.80
2023-03-06T22:12:04.844Z,20.68
2023-03-06T22:17:26.555Z,20.56
2023-03-06T22:22:48.281Z,20.48
2023-03-06T22:28:10.244Z,20.39
2023-03-06T22:33:31.983Z,20.31
2023-03-06T22:38:56.626Z,20.24
2023-03-06T22:44:19.609Z,20.16
2023-03-06T22:49:41.293Z,20.10
2023-03-06T22:55:03.307Z,20.03
2023-03-06T23:00:25.776Z,19.96
2023-03-06T23:05:47.508Z,19.91
2023-03-06T23:11:14.215Z,19.84
2023-03-06T23:16:36.031Z,19.79
2023-03-06T23:21:57.805Z,19.75
2023-03-06T23:27:19.728Z,19.68
2023-03-06T23:32:41.515Z,19.64
2023-03-06T23:38:03.991Z,19.61
2023-03-06T23:43:25.719Z,19.56
2023-03-06T23:48:47.503Z,19.51
2023-03-06T23:54:10.354Z,19.48
2023-03-06T23:59:32.068Z,19.43
